sensor_id;sensor_type;location;lat;lon;timestamp;P1;durP1;ratioP1;P2;durP2;ratioP2
11677;SDS011;5895;41.950;24.372;2023-04-01T00:01:26;5.88;;;3.67;;
11677;SDS011;5895;41.950;24.372;2023-04-01T00:03:54;5.43;;;2.97;;
11677;SDS011;5895;41.950;24.372;2023-04-01T00:06:22;4.25;;;2.65;;
11677;SDS011;5895;41.950;24.372;2023-04-01T00:08:50;5.55;;;3.63;;
11677;SDS011;5895;41.950;24.372;2023-04-01T00:11:18;4.38;;;3.17;;
11677;SDS011;5895;41.950;24.372;2023-04-01T00:13:46;7.30;;;4.07;;
11677;SDS011;5895;41.950;24.372;2023-04-01T00:16:13;4.32;;;3.20;;
11677;SDS011;5895;41.950;24.372;2023-04-01T00:18:41;5.75;;;2.90;;
11677;SDS011;5895;41.950;24.372;2023-04-01T00:21:08;7.10;;;4.00;;
11677;SDS011;5895;41.950;24.372;2023-04-01T00:23:37;6.47;;;3.13;;
11677;SDS011;5895;41.950;24.372;2023-04-01T00:26:04;10.45;;;4.35;;
11677;SDS011;5895;41.950;24.372;2023-04-01T00:28:33;6.78;;;3.35;;
11677;SDS011;5895;41.950;24.372;2023-04-01T00:31:03;6.45;;;3.90;;
11677;SDS011;5895;41.950;24.372;2023-04-01T00:33:32;5.07;;;3.42;;
11677;SDS011;5895;41.950;24.372;2023-04-01T00:36:05;4.72;;;2.70;;
11677;SDS011;5895;41.950;24.372;2023-04-01T00:38:33;6.65;;;3.00;;
11677;SDS011;5895;41.950;24.372;2023-04-01T00:41:02;4.22;;;2.53;;
11677;SDS011;5895;41.950;24.372;2023-04-01T00:43:30;5.22;;;3.35;;
11677;SDS011;5895;41.950;24.372;2023-04-01T00:45:58;6.20;;;3.40;;
11677;SDS011;5895;41.950;24.372;2023-04-01T00:48:27;5.97;;;3.25;;
11677;SDS011;5895;41.950;24.372;2023-04-01T00:50:58;6.43;;;4.35;;
11677;SDS011;5895;41.950;24.372;2023-04-01T00:53:29;5.00;;;2.92;;
11677;SDS011;5895;41.950;24.372;2023-04-01T00:56:00;6.43;;;2.10;;
11677;SDS011;5895;41.950;24.372;2023-04-01T00:58:32;3.00;;;2.00;;
11677;SDS011;5895;41.950;24.372;2023-04-01T01:01:05;4.93;;;3.15;;
11677;SDS011;5895;41.950;24.372;2023-04-01T01:03:34;5.78;;;3.20;;
11677;SDS011;5895;41.950;24.372;2023-04-01T01:06:08;4.95;;;2.88;;
11677;SDS011;5895;41.950;24.372;2023-04-01T01:11:53;4.50;;;2.60;;
11677;SDS011;5895;41.950;24.372;2023-04-01T01:14:33;4.00;;;2.45;;
11677;SDS011;5895;41.950;24.372;2023-04-01T01:17:17;3.22;;;2.42;;
11677;SDS011;5895;41.950;24.372;2023-04-01T01:23:03;4.85;;;3.33;;
11677;SDS011;5895;41.950;24.372;2023-04-01T01:25:43;5.53;;;3.33;;
11677;SDS011;5895;41.950;24.372;2023-04-01T01:28:27;3.95;;;2.65;;
11677;SDS011;5895;41.950;24.372;2023-04-01T01:31:06;5.28;;;2.80;;
11677;SDS011;5895;41.950;24.372;2023-04-01T01:33:48;5.22;;;2.90;;
11677;SDS011;5895;41.950;24.372;2023-04-01T01:36:24;3.55;;;2.90;;
11677;SDS011;5895;41.950;24.372;2023-04-01T01:38:55;5.35;;;3.70;;
11677;SDS011;5895;41.950;24.372;2023-04-01T01:41:23;4.35;;;2.92;;
11677;SDS011;5895;41.950;24.372;2023-04-01T01:43:53;9.82;;;4.13;;
11677;SDS011;5895;41.950;24.372;2023-04-01T01:46:23;12.10;;;5.55;;
11677;SDS011;5895;41.950;24.372;2023-04-01T01:48:54;7.65;;;3.95;;
11677;SDS011;5895;41.950;24.372;2023-04-01T01:51:25;3.78;;;2.90;;
11677;SDS011;5895;41.950;24.372;2023-04-01T01:53:54;3.97;;;2.10;;
11677;SDS011;5895;41.950;24.372;2023-04-01T01:56:22;11.48;;;2.33;;
11677;SDS011;5895;41.950;24.372;2023-04-01T01:58:54;2.30;;;1.95;;
11677;SDS011;5895;41.950;24.372;2023-04-01T02:01:25;4.35;;;2.00;;
11677;SDS011;5895;41.950;24.372;2023-04-01T02:03:54;4.70;;;2.08;;
11677;SDS011;5895;41.950;24.372;2023-04-01T02:06:25;4.55;;;2.05;;
11677;SDS011;5895;41.950;24.372;2023-04-01T02:08:55;4.05;;;2.17;;
11677;SDS011;5895;41.950;24.372;2023-04-01T02:11:27;3.25;;;1.85;;
11677;SDS011;5895;41.950;24.372;2023-04-01T02:13:58;3.25;;;2.15;;
11677;SDS011;5895;41.950;24.372;2023-04-01T02:16:31;3.85;;;2.10;;
11677;SDS011;5895;41.950;24.372;2023-04-01T02:19:02;4.72;;;2.15;;
11677;SDS011;5895;41.950;24.372;2023-04-01T02:21:34;4.82;;;1.98;;
11677;SDS011;5895;41.950;24.372;2023-04-01T02:24:04;5.18;;;2.17;;
11677;SDS011;5895;41.950;24.372;2023-04-01T02:26:35;9.90;;;3.90;;
11677;SDS011;5895;41.950;24.372;2023-04-01T02:29:03;6.40;;;3.50;;
11677;SDS011;5895;41.950;24.372;2023-04-01T02:31:32;5.13;;;2.65;;
11677;SDS011;5895;41.950;24.372;2023-04-01T02:34:00;5.53;;;2.50;;
11677;SDS011;5895;41.950;24.372;2023-04-01T02:36:31;3.08;;;2.20;;
11677;SDS011;5895;41.950;24.372;2023-04-01T02:39:01;6.20;;;2.50;;
11677;SDS011;5895;41.950;24.372;2023-04-01T02:41:30;3.63;;;2.45;;
11677;SDS011;5895;41.950;24.372;2023-04-01T02:43:57;3.33;;;2.80;;
11677;SDS011;5895;41.950;24.372;2023-04-01T02:46:25;6.53;;;2.72;;
11677;SDS011;5895;41.950;24.372;2023-04-01T02:48:52;5.03;;;3.13;;
11677;SDS011;5895;41.950;24.372;2023-04-01T02:51:19;4.85;;;2.90;;
11677;SDS011;5895;41.950;24.372;2023-04-01T02:53:48;4.18;;;2.78;;
11677;SDS011;5895;41.950;24.372;2023-04-01T02:56:15;6.95;;;3.15;;
11677;SDS011;5895;41.950;24.372;2023-04-01T02:58:42;4.38;;;2.67;;
11677;SDS011;5895;41.950;24.372;2023-04-01T03:01:09;4.55;;;2.50;;
11677;SDS011;5895;41.950;24.372;2023-04-01T03:03:37;5.50;;;2.67;;
11677;SDS011;5895;41.950;24.372;2023-04-01T03:06:05;6.65;;;2.58;;
11677;SDS011;5895;41.950;24.372;2023-04-01T03:08:32;5.85;;;2.20;;
11677;SDS011;5895;41.950;24.372;2023-04-01T03:11:01;4.82;;;3.63;;
11677;SDS011;5895;41.950;24.372;2023-04-01T03:13:28;4.35;;;3.10;;
11677;SDS011;5895;41.950;24.372;2023-04-01T03:15:55;6.28;;;2.40;;
11677;SDS011;5895;41.950;24.372;2023-04-01T03:18:23;3.03;;;1.92;;
11677;SDS011;5895;41.950;24.372;2023-04-01T03:20:50;6.78;;;2.20;;
11677;SDS011;5895;41.950;24.372;2023-04-01T03:23:17;3.42;;;2.20;;
11677;SDS011;5895;41.950;24.372;2023-04-01T03:25:44;3.45;;;2.00;;
11677;SDS011;5895;41.950;24.372;2023-04-01T03:28:13;5.13;;;2.10;;
11677;SDS011;5895;41.950;24.372;2023-04-01T03:30:40;5.05;;;1.85;;
11677;SDS011;5895;41.950;24.372;2023-04-01T03:33:07;3.75;;;2.00;;
11677;SDS011;5895;41.950;24.372;2023-04-01T03:35:37;8.10;;;2.00;;
11677;SDS011;5895;41.950;24.372;2023-04-01T03:38:06;7.70;;;2.35;;
11677;SDS011;5895;41.950;24.372;2023-04-01T03:40:33;4.00;;;2.20;;
11677;SDS011;5895;41.950;24.372;2023-04-01T03:43:02;2.80;;;1.85;;
11677;SDS011;5895;41.950;24.372;2023-04-01T03:45:34;4.95;;;1.75;;
11677;SDS011;5895;41.950;24.372;2023-04-01T03:48:01;2.45;;;1.70;;
11677;SDS011;5895;41.950;24.372;2023-04-01T03:50:29;4.75;;;2.13;;
11677;SDS011;5895;41.950;24.372;2023-04-01T03:52:56;3.90;;;2.40;;
11677;SDS011;5895;41.950;24.372;2023-04-01T03:55:23;3.67;;;2.35;;
11677;SDS011;5895;41.950;24.372;2023-04-01T03:57:51;6.03;;;4.15;;
11677;SDS011;5895;41.950;24.372;2023-04-01T04:00:18;6.32;;;3.75;;
11677;SDS011;5895;41.950;24.372;2023-04-01T04:02:47;7.15;;;3.17;;
11677;SDS011;5895;41.950;24.372;2023-04-01T04:05:14;3.22;;;2.30;;
11677;SDS011;5895;41.950;24.372;2023-04-01T04:07:42;9.02;;;6.00;;
11677;SDS011;5895;41.950;24.372;2023-04-01T04:10:09;5.22;;;4.72;;
11677;SDS011;5895;41.950;24.372;2023-04-01T04:12:36;4.97;;;3.85;;
11677;SDS011;5895;41.950;24.372;2023-04-01T04:15:05;5.90;;;4.65;;
11677;SDS011;5895;41.950;24.372;2023-04-01T04:17:33;5.22;;;4.03;;
11677;SDS011;5895;41.950;24.372;2023-04-01T04:20:02;14.40;;;8.10;;
11677;SDS011;5895;41.950;24.372;2023-04-01T04:22:29;38.70;;;19.27;;
11677;SDS011;5895;41.950;24.372;2023-04-01T04:24:56;68.32;;;26.23;;
11677;SDS011;5895;41.950;24.372;2023-04-01T04:27:23;43.45;;;20.92;;
11677;SDS011;5895;41.950;24.372;2023-04-01T04:29:51;9.27;;;4.90;;
11677;SDS011;5895;41.950;24.372;2023-04-01T04:32:18;10.30;;;5.40;;
11677;SDS011;5895;41.950;24.372;2023-04-01T04:34:45;7.75;;;5.10;;
11677;SDS011;5895;41.950;24.372;2023-04-01T04:37:14;8.65;;;4.65;;
11677;SDS011;5895;41.950;24.372;2023-04-01T04:39:41;8.15;;;5.05;;
11677;SDS011;5895;41.950;24.372;2023-04-01T04:42:08;6.97;;;4.95;;
11677;SDS011;5895;41.950;24.372;2023-04-01T04:44:35;11.82;;;6.72;;
11677;SDS011;5895;41.950;24.372;2023-04-01T04:47:02;12.45;;;7.63;;
11677;SDS011;5895;41.950;24.372;2023-04-01T04:49:30;14.32;;;8.77;;
11677;SDS011;5895;41.950;24.372;2023-04-01T04:51:57;13.10;;;7.47;;
11677;SDS011;5895;41.950;24.372;2023-04-01T04:54:26;31.33;;;22.05;;
11677;SDS011;5895;41.950;24.372;2023-04-01T04:56:53;30.27;;;21.02;;
11677;SDS011;5895;41.950;24.372;2023-04-01T04:59:20;29.02;;;18.63;;
11677;SDS011;5895;41.950;24.372;2023-04-01T05:01:47;16.92;;;9.90;;
11677;SDS011;5895;41.950;24.372;2023-04-01T05:04:14;54.85;;;38.60;;
11677;SDS011;5895;41.950;24.372;2023-04-01T05:06:42;34.80;;;25.38;;
11677;SDS011;5895;41.950;24.372;2023-04-01T05:09:10;5.78;;;2.35;;
11677;SDS011;5895;41.950;24.372;2023-04-01T05:11:39;5.40;;;2.25;;
11677;SDS011;5895;41.950;24.372;2023-04-01T05:14:11;10.70;;;5.05;;
11677;SDS011;5895;41.950;24.372;2023-04-01T05:16:39;3.67;;;2.15;;
11677;SDS011;5895;41.950;24.372;2023-04-01T05:19:06;3.03;;;1.80;;
11677;SDS011;5895;41.950;24.372;2023-04-01T05:21:34;7.13;;;2.38;;
11677;SDS011;5895;41.950;24.372;2023-04-01T05:24:01;4.15;;;2.05;;
11677;SDS011;5895;41.950;24.372;2023-04-01T05:26:28;5.57;;;2.00;;
11677;SDS011;5895;41.950;24.372;2023-04-01T05:28:57;4.47;;;1.70;;
11677;SDS011;5895;41.950;24.372;2023-04-01T05:31:24;4.22;;;2.00;;
11677;SDS011;5895;41.950;24.372;2023-04-01T05:33:51;4.18;;;2.47;;
11677;SDS011;5895;41.950;24.372;2023-04-01T05:36:19;3.88;;;2.13;;
11677;SDS011;5895;41.950;24.372;2023-04-01T05:38:46;3.97;;;2.00;;
11677;SDS011;5895;41.950;24.372;2023-04-01T05:41:14;7.35;;;2.50;;
11677;SDS011;5895;41.950;24.372;2023-04-01T05:43:41;5.32;;;2.20;;
11677;SDS011;5895;41.950;24.372;2023-04-01T05:46:10;3.83;;;1.88;;
11677;SDS011;5895;41.950;24.372;2023-04-01T05:48:38;4.38;;;1.90;;
11677;SDS011;5895;41.950;24.372;2023-04-01T05:51:05;2.45;;;1.92;;
11677;SDS011;5895;41.950;24.372;2023-04-01T05:53:32;7.60;;;2.55;;
11677;SDS011;5895;41.950;24.372;2023-04-01T05:56:01;5.60;;;1.83;;
11677;SDS011;5895;41.950;24.372;2023-04-01T05:58:29;5.30;;;2.20;;
11677;SDS011;5895;41.950;24.372;2023-04-01T06:01:00;5.63;;;2.15;;
11677;SDS011;5895;41.950;24.372;2023-04-01T06:03:31;4.10;;;2.03;;
11677;SDS011;5895;41.950;24.372;2023-04-01T06:05:58;3.45;;;2.00;;
11677;SDS011;5895;41.950;24.372;2023-04-01T06:08:26;4.75;;;2.05;;
11677;SDS011;5895;41.950;24.372;2023-04-01T06:10:57;5.82;;;2.13;;
11677;SDS011;5895;41.950;24.372;2023-04-01T06:13:43;4.45;;;2.25;;
11677;SDS011;5895;41.950;24.372;2023-04-01T06:16:27;4.15;;;2.05;;
11677;SDS011;5895;41.950;24.372;2023-04-01T06:19:09;4.55;;;2.10;;
11677;SDS011;5895;41.950;24.372;2023-04-01T06:21:50;4.18;;;2.03;;
11677;SDS011;5895;41.950;24.372;2023-04-01T06:24:41;7.10;;;2.30;;
11677;SDS011;5895;41.950;24.372;2023-04-01T06:27:24;6.97;;;1.90;;
11677;SDS011;5895;41.950;24.372;2023-04-01T06:30:06;7.50;;;2.03;;
11677;SDS011;5895;41.950;24.372;2023-04-01T06:32:51;3.10;;;2.05;;
11677;SDS011;5895;41.950;24.372;2023-04-01T06:38:38;4.20;;;2.03;;
11677;SDS011;5895;41.950;24.372;2023-04-01T06:41:26;4.93;;;2.03;;
11677;SDS011;5895;41.950;24.372;2023-04-01T06:44:20;5.13;;;1.88;;
11677;SDS011;5895;41.950;24.372;2023-04-01T06:46:55;7.05;;;2.25;;
11677;SDS011;5895;41.950;24.372;2023-04-01T06:49:31;7.60;;;2.17;;
11677;SDS011;5895;41.950;24.372;2023-04-01T06:52:11;5.80;;;2.03;;
11677;SDS011;5895;41.950;24.372;2023-04-01T06:54:44;2.85;;;2.20;;
11677;SDS011;5895;41.950;24.372;2023-04-01T06:57:18;4.03;;;1.80;;
11677;SDS011;5895;41.950;24.372;2023-04-01T06:59:51;6.35;;;2.03;;
11677;SDS011;5895;41.950;24.372;2023-04-01T07:02:23;3.92;;;1.92;;
11677;SDS011;5895;41.950;24.372;2023-04-01T07:04:55;4.80;;;2.25;;
11677;SDS011;5895;41.950;24.372;2023-04-01T07:07:29;5.28;;;1.92;;
11677;SDS011;5895;41.950;24.372;2023-04-01T07:10:02;6.22;;;2.28;;
11677;SDS011;5895;41.950;24.372;2023-04-01T07:12:36;5.40;;;2.20;;
11677;SDS011;5895;41.950;24.372;2023-04-01T07:15:13;4.07;;;2.13;;
11677;SDS011;5895;41.950;24.372;2023-04-01T07:17:45;2.83;;;1.90;;
11677;SDS011;5895;41.950;24.372;2023-04-01T07:20:17;7.50;;;1.77;;
11677;SDS011;5895;41.950;24.372;2023-04-01T07:22:51;4.82;;;2.05;;
11677;SDS011;5895;41.950;24.372;2023-04-01T07:25:22;8.50;;;2.72;;
11677;SDS011;5895;41.950;24.372;2023-04-01T07:27:52;3.28;;;2.00;;
11677;SDS011;5895;41.950;24.372;2023-04-01T07:30:22;6.03;;;2.10;;
11677;SDS011;5895;41.950;24.372;2023-04-01T07:32:51;6.40;;;2.10;;
11677;SDS011;5895;41.950;24.372;2023-04-01T07:35:26;6.35;;;2.05;;
11677;SDS011;5895;41.950;24.372;2023-04-01T07:38:05;7.03;;;2.00;;
11677;SDS011;5895;41.950;24.372;2023-04-01T07:40:43;4.50;;;2.03;;
11677;SDS011;5895;41.950;24.372;2023-04-01T07:46:15;4.68;;;1.85;;
11677;SDS011;5895;41.950;24.372;2023-04-01T07:48:52;5.30;;;2.33;;
11677;SDS011;5895;41.950;24.372;2023-04-01T07:51:27;5.32;;;2.13;;
11677;SDS011;5895;41.950;24.372;2023-04-01T07:54:01;4.85;;;2.13;;
11677;SDS011;5895;41.950;24.372;2023-04-01T07:56:36;4.78;;;2.10;;
11677;SDS011;5895;41.950;24.372;2023-04-01T07:59:10;4.32;;;2.78;;
11677;SDS011;5895;41.950;24.372;2023-04-01T08:01:45;4.78;;;2.10;;
11677;SDS011;5895;41.950;24.372;2023-04-01T08:04:24;4.05;;;2.10;;
11677;SDS011;5895;41.950;24.372;2023-04-01T08:07:03;4.20;;;2.00;;
11677;SDS011;5895;41.950;24.372;2023-04-01T08:09:38;4.55;;;1.85;;
11677;SDS011;5895;41.950;24.372;2023-04-01T08:12:13;3.58;;;1.77;;
11677;SDS011;5895;41.950;24.372;2023-04-01T08:14:55;6.38;;;2.20;;
11677;SDS011;5895;41.950;24.372;2023-04-01T08:17:35;3.05;;;1.77;;
11677;SDS011;5895;41.950;24.372;2023-04-01T08:20:14;7.35;;;2.13;;
11677;SDS011;5895;41.950;24.372;2023-04-01T08:22:53;5.18;;;2.20;;
11677;SDS011;5895;41.950;24.372;2023-04-01T08:25:28;4.93;;;1.88;;
11677;SDS011;5895;41.950;24.372;2023-04-01T08:27:58;4.85;;;2.15;;
11677;SDS011;5895;41.950;24.372;2023-04-01T08:30:33;5.05;;;1.77;;
11677;SDS011;5895;41.950;24.372;2023-04-01T08:33:05;4.95;;;1.95;;
11677;SDS011;5895;41.950;24.372;2023-04-01T08:35:40;7.55;;;2.30;;
11677;SDS011;5895;41.950;24.372;2023-04-01T08:38:13;7.00;;;2.20;;
11677;SDS011;5895;41.950;24.372;2023-04-01T08:40:59;3.40;;;2.28;;
11677;SDS011;5895;41.950;24.372;2023-04-01T08:43:49;7.57;;;2.00;;
11677;SDS011;5895;41.950;24.372;2023-04-01T08:46:40;8.90;;;2.53;;
11677;SDS011;5895;41.950;24.372;2023-04-01T08:49:30;4.63;;;1.90;;
11677;SDS011;5895;41.950;24.372;2023-04-01T08:52:15;6.50;;;2.10;;
11677;SDS011;5895;41.950;24.372;2023-04-01T08:57:53;4.63;;;1.85;;
11677;SDS011;5895;41.950;24.372;2023-04-01T09:00:33;4.32;;;2.15;;
11677;SDS011;5895;41.950;24.372;2023-04-01T09:03:14;6.47;;;1.83;;
11677;SDS011;5895;41.950;24.372;2023-04-01T09:06:20;5.45;;;2.28;;
11677;SDS011;5895;41.950;24.372;2023-04-01T09:12:38;6.40;;;2.35;;
11677;SDS011;5895;41.950;24.372;2023-04-01T09:15:30;9.15;;;3.17;;
11677;SDS011;5895;41.950;24.372;2023-04-01T09:18:24;8.07;;;2.53;;
11677;SDS011;5895;41.950;24.372;2023-04-01T09:21:24;8.02;;;3.35;;
11677;SDS011;5895;41.950;24.372;2023-04-01T09:24:08;5.35;;;2.65;;
11677;SDS011;5895;41.950;24.372;2023-04-01T09:27:09;6.43;;;2.03;;
11677;SDS011;5895;41.950;24.372;2023-04-01T09:30:03;4.95;;;2.72;;
11677;SDS011;5895;41.950;24.372;2023-04-01T09:36:07;3.72;;;1.90;;
11677;SDS011;5895;41.950;24.372;2023-04-01T09:38:44;8.95;;;2.17;;
11677;SDS011;5895;41.950;24.372;2023-04-01T09:41:25;5.60;;;2.58;;
11677;SDS011;5895;41.950;24.372;2023-04-01T09:44:00;6.18;;;2.08;;
11677;SDS011;5895;41.950;24.372;2023-04-01T09:49:33;5.05;;;2.00;;
11677;SDS011;5895;41.950;24.372;2023-04-01T09:52:16;6.80;;;2.20;;
11677;SDS011;5895;41.950;24.372;2023-04-01T09:55:06;5.28;;;1.90;;
11677;SDS011;5895;41.950;24.372;2023-04-01T09:58:27;3.65;;;1.80;;
11677;SDS011;5895;41.950;24.372;2023-04-01T10:01:33;4.20;;;1.65;;
11677;SDS011;5895;41.950;24.372;2023-04-01T10:04:18;6.75;;;2.25;;
11677;SDS011;5895;41.950;24.372;2023-04-01T10:07:16;4.47;;;2.08;;
11677;SDS011;5895;41.950;24.372;2023-04-01T10:10:07;2.65;;;1.98;;
11677;SDS011;5895;41.950;24.372;2023-04-01T10:19:39;7.22;;;1.95;;
11677;SDS011;5895;41.950;24.372;2023-04-01T10:22:49;3.88;;;1.90;;
11677;SDS011;5895;41.950;24.372;2023-04-01T10:28:47;5.68;;;1.65;;
11677;SDS011;5895;41.950;24.372;2023-04-01T10:31:34;3.45;;;1.83;;
11677;SDS011;5895;41.950;24.372;2023-04-01T10:34:41;4.88;;;1.90;;
11677;SDS011;5895;41.950;24.372;2023-04-01T10:37:34;2.85;;;1.88;;
11677;SDS011;5895;41.950;24.372;2023-04-01T10:40:44;10.45;;;2.50;;
11677;SDS011;5895;41.950;24.372;2023-04-01T10:43:45;4.68;;;2.10;;
11677;SDS011;5895;41.950;24.372;2023-04-01T10:52:38;6.82;;;2.35;;
11677;SDS011;5895;41.950;24.372;2023-04-01T10:55:35;7.93;;;1.95;;
11677;SDS011;5895;41.950;24.372;2023-04-01T10:58:23;3.85;;;2.00;;
11677;SDS011;5895;41.950;24.372;2023-04-01T11:01:27;2.83;;;2.10;;
11677;SDS011;5895;41.950;24.372;2023-04-01T11:04:28;4.90;;;1.80;;
11677;SDS011;5895;41.950;24.372;2023-04-01T11:16:20;6.85;;;3.00;;
11677;SDS011;5895;41.950;24.372;2023-04-01T11:19:10;5.80;;;2.28;;
11677;SDS011;5895;41.950;24.372;2023-04-01T11:22:08;5.20;;;2.28;;
11677;SDS011;5895;41.950;24.372;2023-04-01T11:24:55;4.95;;;2.17;;
11677;SDS011;5895;41.950;24.372;2023-04-01T11:27:40;4.53;;;2.10;;
11677;SDS011;5895;41.950;24.372;2023-04-01T11:30:18;8.60;;;2.10;;
11677;SDS011;5895;41.950;24.372;2023-04-01T11:32:56;8.60;;;2.10;;
11677;SDS011;5895;41.950;24.372;2023-04-01T11:35:34;7.65;;;2.72;;
11677;SDS011;5895;41.950;24.372;2023-04-01T11:38:26;11.40;;;2.47;;
11677;SDS011;5895;41.950;24.372;2023-04-01T11:41:02;8.10;;;2.22;;
11677;SDS011;5895;41.950;24.372;2023-04-01T11:43:49;6.65;;;2.03;;
11677;SDS011;5895;41.950;24.372;2023-04-01T11:46:31;8.38;;;2.25;;
11677;SDS011;5895;41.950;24.372;2023-04-01T11:49:11;5.88;;;2.05;;
11677;SDS011;5895;41.950;24.372;2023-04-01T11:51:53;11.25;;;2.00;;
11677;SDS011;5895;41.950;24.372;2023-04-01T11:54:44;5.03;;;1.98;;
11677;SDS011;5895;41.950;24.372;2023-04-01T11:57:35;4.70;;;2.65;;
11677;SDS011;5895;41.950;24.372;2023-04-01T12:00:20;6.72;;;2.40;;
11677;SDS011;5895;41.950;24.372;2023-04-01T12:03:10;5.05;;;2.45;;
11677;SDS011;5895;41.950;24.372;2023-04-01T12:05:57;8.65;;;2.13;;
11677;SDS011;5895;41.950;24.372;2023-04-01T12:08:31;11.00;;;2.13;;
11677;SDS011;5895;41.950;24.372;2023-04-01T12:11:09;5.47;;;2.03;;
11677;SDS011;5895;41.950;24.372;2023-04-01T12:13:44;3.88;;;1.77;;
11677;SDS011;5895;41.950;24.372;2023-04-01T12:16:25;8.82;;;3.65;;
11677;SDS011;5895;41.950;24.372;2023-04-01T12:19:03;6.22;;;1.90;;
11677;SDS011;5895;41.950;24.372;2023-04-01T12:21:42;6.63;;;2.10;;
11677;SDS011;5895;41.950;24.372;2023-04-01T12:27:29;6.90;;;1.95;;
11677;SDS011;5895;41.950;24.372;2023-04-01T12:30:21;9.13;;;2.28;;
11677;SDS011;5895;41.950;24.372;2023-04-01T12:33:18;6.70;;;1.98;;
11677;SDS011;5895;41.950;24.372;2023-04-01T12:36:00;5.25;;;2.22;;
11677;SDS011;5895;41.950;24.372;2023-04-01T12:38:42;6.50;;;2.20;;
11677;SDS011;5895;41.950;24.372;2023-04-01T12:41:18;9.90;;;2.35;;
11677;SDS011;5895;41.950;24.372;2023-04-01T12:44:03;5.03;;;2.10;;
11677;SDS011;5895;41.950;24.372;2023-04-01T12:46:59;4.85;;;2.38;;
11677;SDS011;5895;41.950;24.372;2023-04-01T12:49:51;8.57;;;3.05;;
11677;SDS011;5895;41.950;24.372;2023-04-01T12:52:45;8.85;;;2.58;;
11677;SDS011;5895;41.950;24.372;2023-04-01T13:01:25;11.75;;;4.45;;
11677;SDS011;5895;41.950;24.372;2023-04-01T13:04:02;5.13;;;2.35;;
11677;SDS011;5895;41.950;24.372;2023-04-01T13:06:52;5.82;;;2.00;;
11677;SDS011;5895;41.950;24.372;2023-04-01T13:09:38;6.53;;;2.28;;
11677;SDS011;5895;41.950;24.372;2023-04-01T13:15:22;7.10;;;2.90;;
11677;SDS011;5895;41.950;24.372;2023-04-01T13:17:57;6.88;;;2.80;;
11677;SDS011;5895;41.950;24.372;2023-04-01T13:20:39;6.28;;;2.40;;
11677;SDS011;5895;41.950;24.372;2023-04-01T13:23:22;5.90;;;2.83;;
11677;SDS011;5895;41.950;24.372;2023-04-01T13:26:00;7.95;;;4.22;;
11677;SDS011;5895;41.950;24.372;2023-04-01T13:28:36;8.18;;;4.35;;
11677;SDS011;5895;41.950;24.372;2023-04-01T13:31:08;14.45;;;8.60;;
11677;SDS011;5895;41.950;24.372;2023-04-01T13:33:53;8.18;;;5.93;;
11677;SDS011;5895;41.950;24.372;2023-04-01T13:36:34;11.05;;;8.80;;
11677;SDS011;5895;41.950;24.372;2023-04-01T13:42:13;9.35;;;7.75;;
11677;SDS011;5895;41.950;24.372;2023-04-01T13:44:49;10.10;;;7.80;;
11677;SDS011;5895;41.950;24.372;2023-04-01T13:47:24;10.57;;;7.57;;
11677;SDS011;5895;41.950;24.372;2023-04-01T13:56:19;8.27;;;7.47;;
11677;SDS011;5895;41.950;24.372;2023-04-01T13:59:02;16.20;;;11.00;;
11677;SDS011;5895;41.950;24.372;2023-04-01T14:01:40;30.08;;;18.67;;
11677;SDS011;5895;41.950;24.372;2023-04-01T14:04:30;45.45;;;30.52;;
11677;SDS011;5895;41.950;24.372;2023-04-01T14:07:09;33.47;;;23.83;;
11677;SDS011;5895;41.950;24.372;2023-04-01T14:09:59;19.92;;;14.80;;
11677;SDS011;5895;41.950;24.372;2023-04-01T14:12:36;14.60;;;10.55;;
11677;SDS011;5895;41.950;24.372;2023-04-01T14:15:17;10.98;;;7.05;;
11677;SDS011;5895;41.950;24.372;2023-04-01T14:17:56;17.27;;;10.95;;
11677;SDS011;5895;41.950;24.372;2023-04-01T14:20:36;24.15;;;18.33;;
11677;SDS011;5895;41.950;24.372;2023-04-01T14:23:15;21.40;;;18.23;;
11677;SDS011;5895;41.950;24.372;2023-04-01T14:29:04;20.88;;;15.27;;
11677;SDS011;5895;41.950;24.372;2023-04-01T14:31:47;14.85;;;9.85;;
11677;SDS011;5895;41.950;24.372;2023-04-01T14:34:26;10.10;;;7.70;;
11677;SDS011;5895;41.950;24.372;2023-04-01T14:37:15;11.88;;;7.75;;
11677;SDS011;5895;41.950;24.372;2023-04-01T14:40:03;14.10;;;11.00;;
11677;SDS011;5895;41.950;24.372;2023-04-01T14:42:48;9.35;;;8.32;;
11677;SDS011;5895;41.950;24.372;2023-04-01T14:45:53;10.82;;;7.93;;
11677;SDS011;5895;41.950;24.372;2023-04-01T14:48:31;7.65;;;6.93;;
11677;SDS011;5895;41.950;24.372;2023-04-01T14:51:10;10.68;;;7.60;;
11677;SDS011;5895;41.950;24.372;2023-04-01T14:53:43;9.70;;;7.75;;
11677;SDS011;5895;41.950;24.372;2023-04-01T14:59:04;10.43;;;6.65;;
11677;SDS011;5895;41.950;24.372;2023-04-01T15:01:45;8.32;;;5.32;;
11677;SDS011;5895;41.950;24.372;2023-04-01T15:04:27;7.28;;;6.43;;
11677;SDS011;5895;41.950;24.372;2023-04-01T15:07:15;10.25;;;6.70;;
11677;SDS011;5895;41.950;24.372;2023-04-01T15:09:55;6.65;;;5.70;;
11677;SDS011;5895;41.950;24.372;2023-04-01T15:12:34;11.02;;;6.53;;
11677;SDS011;5895;41.950;24.372;2023-04-01T15:15:13;7.93;;;5.63;;
11677;SDS011;5895;41.950;24.372;2023-04-01T15:17:58;9.25;;;6.57;;
11677;SDS011;5895;41.950;24.372;2023-04-01T15:20:41;6.68;;;5.60;;
11677;SDS011;5895;41.950;24.372;2023-04-01T15:29:37;6.85;;;4.90;;
11677;SDS011;5895;41.950;24.372;2023-04-01T15:32:31;6.13;;;4.72;;
11677;SDS011;5895;41.950;24.372;2023-04-01T15:35:14;4.65;;;3.40;;
11677;SDS011;5895;41.950;24.372;2023-04-01T15:37:51;4.60;;;3.42;;
11677;SDS011;5895;41.950;24.372;2023-04-01T15:40:26;4.72;;;3.58;;
11677;SDS011;5895;41.950;24.372;2023-04-01T15:43:01;5.63;;;3.35;;
11677;SDS011;5895;41.950;24.372;2023-04-01T15:45:39;5.18;;;3.40;;
11677;SDS011;5895;41.950;24.372;2023-04-01T15:48:18;5.53;;;3.55;;
11677;SDS011;5895;41.950;24.372;2023-04-01T15:57:31;4.45;;;3.47;;
11677;SDS011;5895;41.950;24.372;2023-04-01T16:00:11;5.63;;;3.13;;
11677;SDS011;5895;41.950;24.372;2023-04-01T16:02:52;8.57;;;3.40;;
11677;SDS011;5895;41.950;24.372;2023-04-01T16:05:37;4.28;;;3.88;;
11677;SDS011;5895;41.950;24.372;2023-04-01T16:08:17;8.30;;;3.92;;
11677;SDS011;5895;41.950;24.372;2023-04-01T16:11:03;4.93;;;3.53;;
11677;SDS011;5895;41.950;24.372;2023-04-01T16:13:48;7.28;;;6.32;;
11677;SDS011;5895;41.950;24.372;2023-04-01T16:16:28;5.20;;;2.72;;
11677;SDS011;5895;41.950;24.372;2023-04-01T16:19:15;2.00;;;1.52;;
11677;SDS011;5895;41.950;24.372;2023-04-01T16:21:57;2.30;;;2.03;;
11677;SDS011;5895;41.950;24.372;2023-04-01T16:24:31;2.70;;;1.90;;
11677;SDS011;5895;41.950;24.372;2023-04-01T16:27:06;4.82;;;1.60;;
11677;SDS011;5895;41.950;24.372;2023-04-01T16:29:43;4.40;;;3.10;;
11677;SDS011;5895;41.950;24.372;2023-04-01T16:32:29;5.75;;;2.78;;
11677;SDS011;5895;41.950;24.372;2023-04-01T16:35:05;5.70;;;2.35;;
11677;SDS011;5895;41.950;24.372;2023-04-01T16:37:55;4.95;;;3.40;;
11677;SDS011;5895;41.950;24.372;2023-04-01T16:40:37;9.35;;;7.05;;
11677;SDS011;5895;41.950;24.372;2023-04-01T16:43:13;5.30;;;4.55;;
11677;SDS011;5895;41.950;24.372;2023-04-01T16:45:54;3.38;;;2.92;;
11677;SDS011;5895;41.950;24.372;2023-04-01T16:48:45;5.10;;;2.58;;
11677;SDS011;5895;41.950;24.372;2023-04-01T16:51:24;5.93;;;4.20;;
11677;SDS011;5895;41.950;24.372;2023-04-01T16:54:02;4.85;;;2.58;;
11677;SDS011;5895;41.950;24.372;2023-04-01T16:56:36;6.32;;;4.30;;
11677;SDS011;5895;41.950;24.372;2023-04-01T16:59:13;5.43;;;3.15;;
11677;SDS011;5895;41.950;24.372;2023-04-01T17:01:47;5.38;;;3.60;;
11677;SDS011;5895;41.950;24.372;2023-04-01T17:04:23;6.82;;;4.47;;
11677;SDS011;5895;41.950;24.372;2023-04-01T17:07:00;9.82;;;5.25;;
11677;SDS011;5895;41.950;24.372;2023-04-01T17:09:40;3.05;;;2.58;;
11677;SDS011;5895;41.950;24.372;2023-04-01T17:12:24;3.00;;;2.38;;
11677;SDS011;5895;41.950;24.372;2023-04-01T17:15:00;3.45;;;2.70;;